sensor_id;sensor_type;location;lat;lon;timestamp;temperature;humidity
11736;DHT22;5924;51.398;7.088;2022-10-17T00:02:00;12.70;99.90
11736;DHT22;5924;51.398;7.088;2022-10-17T00:04:26;12.70;99.90
11736;DHT22;5924;51.398;7.088;2022-10-17T00:06:51;12.80;99.90
11736;DHT22;5924;51.398;7.088;2022-10-17T00:09:17;12.90;99.90
11736;DHT22;5924;51.398;7.088;2022-10-17T00:11:42;12.90;99.90
11736;DHT22;5924;51.398;7.088;2022-10-17T00:14:08;12.90;99.90
11736;DHT22;5924;51.398;7.088;2022-10-17T00:16:35;12.90;99.90
11736;DHT22;5924;51.398;7.088;2022-10-17T00:19:03;13.00;99.90
11736;DHT22;5924;51.398;7.088;2022-10-17T00:21:29;13.10;99.90
11736;DHT22;5924;51.398;7.088;2022-10-17T00:23:55;13.10;99.90
11736;DHT22;5924;51.398;7.088;2022-10-17T00:26:21;13.20;99.90
11736;DHT22;5924;51.398;7.088;2022-10-17T00:28:51;13.30;99.90
11736;DHT22;5924;51.398;7.088;2022-10-17T00:31:18;13.40;99.90
11736;DHT22;5924;51.398;7.088;2022-10-17T00:33:44;13.50;99.90
11736;DHT22;5924;51.398;7.088;2022-10-17T00:36:13;13.60;99.90
11736;DHT22;5924;51.398;7.088;2022-10-17T00:38:40;13.50;99.90
11736;DHT22;5924;51.398;7.088;2022-10-17T00:41:08;13.70;99.90
11736;DHT22;5924;51.398;7.088;2022-10-17T00:44:03;13.50;99.90
11736;DHT22;5924;51.398;7.088;2022-10-17T00:46:32;13.50;99.90
11736;DHT22;5924;51.398;7.088;2022-10-17T00:49:09;13.50;99.90
11736;DHT22;5924;51.398;7.088;2022-10-17T00:51:47;13.60;99.90
11736;DHT22;5924;51.398;7.088;2022-10-17T00:54:15;13.70;99.90
11736;DHT22;5924;51.398;7.088;2022-10-17T00:56:42;13.80;99.90
11736;DHT22;5924;51.398;7.088;2022-10-17T00:59:10;14.00;99.90
11736;DHT22;5924;51.398;7.088;2022-10-17T01:01:37;14.10;99.90
11736;DHT22;5924;51.398;7.088;2022-10-17T01:04:03;14.30;99.90
11736;DHT22;5924;51.398;7.088;2022-10-17T01:06:28;14.40;99.90
11736;DHT22;5924;51.398;7.088;2022-10-17T01:08:54;14.40;99.90
11736;DHT22;5924;51.398;7.088;2022-10-17T01:22:11;15.00;99.90
11736;DHT22;5924;51.398;7.088;2022-10-17T01:25:01;15.00;99.90
11736;DHT22;5924;51.398;7.088;2022-10-17T01:33:15;15.10;99.90
11736;DHT22;5924;51.398;7.088;2022-10-17T01:36:05;15.10;99.90
11736;DHT22;5924;51.398;7.088;2022-10-17T01:38:43;15.10;99.90
11736;DHT22;5924;51.398;7.088;2022-10-17T01:44:04;15.10;99.90
11736;DHT22;5924;51.398;7.088;2022-10-17T01:46:37;15.20;99.90
11736;DHT22;5924;51.398;7.088;2022-10-17T01:49:06;15.20;99.90
11736;DHT22;5924;51.398;7.088;2022-10-17T01:54:11;15.30;99.90
11736;DHT22;5924;51.398;7.088;2022-10-17T01:56:39;15.40;99.90
11736;DHT22;5924;51.398;7.088;2022-10-17T02:01:56;15.50;99.90
11736;DHT22;5924;51.398;7.088;2022-10-17T02:04:24;15.50;99.90
11736;DHT22;5924;51.398;7.088;2022-10-17T02:06:50;15.70;99.90
11736;DHT22;5924;51.398;7.088;2022-10-17T02:09:18;15.50;99.90
11736;DHT22;5924;51.398;7.088;2022-10-17T02:14:50;15.60;99.90
11736;DHT22;5924;51.398;7.088;2022-10-17T02:17:54;15.60;99.90
11736;DHT22;5924;51.398;7.088;2022-10-17T02:20:30;15.60;99.90
11736;DHT22;5924;51.398;7.088;2022-10-17T02:23:10;15.70;99.90
11736;DHT22;5924;51.398;7.088;2022-10-17T02:28:53;15.70;99.90
11736;DHT22;5924;51.398;7.088;2022-10-17T02:31:44;15.70;99.90
11736;DHT22;5924;51.398;7.088;2022-10-17T02:34:18;15.70;99.90
11736;DHT22;5924;51.398;7.088;2022-10-17T02:36:50;15.70;99.90
11736;DHT22;5924;51.398;7.088;2022-10-17T02:39:19;15.70;99.90
11736;DHT22;5924;51.398;7.088;2022-10-17T02:41:47;15.70;99.90
11736;DHT22;5924;51.398;7.088;2022-10-17T02:44:13;15.80;99.90
11736;DHT22;5924;51.398;7.088;2022-10-17T02:46:40;15.90;99.90
11736;DHT22;5924;51.398;7.088;2022-10-17T02:49:22;15.90;99.90
11736;DHT22;5924;51.398;7.088;2022-10-17T02:54:56;15.80;99.90
11736;DHT22;5924;51.398;7.088;2022-10-17T02:57:27;15.90;99.90
11736;DHT22;5924;51.398;7.088;2022-10-17T02:59:57;16.00;99.90
11736;DHT22;5924;51.398;7.088;2022-10-17T03:02:23;15.90;99.90
11736;DHT22;5924;51.398;7.088;2022-10-17T03:04:49;15.90;99.90
11736;DHT22;5924;51.398;7.088;2022-10-17T03:07:15;15.90;99.90
11736;DHT22;5924;51.398;7.088;2022-10-17T03:09:40;15.90;99.90
11736;DHT22;5924;51.398;7.088;2022-10-17T03:12:06;15.90;99.90
11736;DHT22;5924;51.398;7.088;2022-10-17T03:14:31;15.90;99.90
11736;DHT22;5924;51.398;7.088;2022-10-17T03:16:57;16.00;99.90
11736;DHT22;5924;51.398;7.088;2022-10-17T03:19:23;16.00;99.90
11736;DHT22;5924;51.398;7.088;2022-10-17T03:21:48;16.00;99.90
11736;DHT22;5924;51.398;7.088;2022-10-17T03:24:14;16.10;99.90
11736;DHT22;5924;51.398;7.088;2022-10-17T03:26:39;16.10;99.90
11736;DHT22;5924;51.398;7.088;2022-10-17T03:29:05;16.10;99.90
11736;DHT22;5924;51.398;7.088;2022-10-17T03:31:31;16.10;99.90
11736;DHT22;5924;51.398;7.088;2022-10-17T03:33:56;16.10;99.90
11736;DHT22;5924;51.398;7.088;2022-10-17T03:36:22;16.10;99.90
11736;DHT22;5924;51.398;7.088;2022-10-17T03:38:48;16.10;99.90
11736;DHT22;5924;51.398;7.088;2022-10-17T03:41:13;16.10;99.90
11736;DHT22;5924;51.398;7.088;2022-10-17T03:43:39;16.10;99.90
11736;DHT22;5924;51.398;7.088;2022-10-17T03:46:05;16.10;99.90
11736;DHT22;5924;51.398;7.088;2022-10-17T03:48:31;16.10;99.90
11736;DHT22;5924;51.398;7.088;2022-10-17T03:51:04;16.10;99.90
11736;DHT22;5924;51.398;7.088;2022-10-17T03:53:30;16.20;99.90
11736;DHT22;5924;51.398;7.088;2022-10-17T03:55:56;16.20;99.90
11736;DHT22;5924;51.398;7.088;2022-10-17T03:58:22;16.20;99.90
11736;DHT22;5924;51.398;7.088;2022-10-17T04:00:48;16.20;99.90
11736;DHT22;5924;51.398;7.088;2022-10-17T04:03:13;16.20;99.90
11736;DHT22;5924;51.398;7.088;2022-10-17T04:05:39;16.20;99.90
11736;DHT22;5924;51.398;7.088;2022-10-17T04:08:05;16.30;99.90
11736;DHT22;5924;51.398;7.088;2022-10-17T04:10:30;16.30;99.90
11736;DHT22;5924;51.398;7.088;2022-10-17T04:12:56;16.30;99.90
11736;DHT22;5924;51.398;7.088;2022-10-17T04:15:22;17.20;99.90
11736;DHT22;5924;51.398;7.088;2022-10-17T04:17:47;16.30;99.90
11736;DHT22;5924;51.398;7.088;2022-10-17T04:20:13;16.30;99.90
11736;DHT22;5924;51.398;7.088;2022-10-17T04:22:39;17.00;99.90
11736;DHT22;5924;51.398;7.088;2022-10-17T04:25:05;18.90;99.90
11736;DHT22;5924;51.398;7.088;2022-10-17T04:27:30;16.30;99.90
11736;DHT22;5924;51.398;7.088;2022-10-17T04:29:56;16.30;99.90
11736;DHT22;5924;51.398;7.088;2022-10-17T04:32:21;16.40;99.90
11736;DHT22;5924;51.398;7.088;2022-10-17T04:34:48;16.40;99.90
11736;DHT22;5924;51.398;7.088;2022-10-17T04:37:14;16.30;99.90
11736;DHT22;5924;51.398;7.088;2022-10-17T04:39:40;16.30;99.90
11736;DHT22;5924;51.398;7.088;2022-10-17T04:42:05;16.40;99.90
11736;DHT22;5924;51.398;7.088;2022-10-17T04:44:31;16.40;99.90
11736;DHT22;5924;51.398;7.088;2022-10-17T04:46:58;16.40;99.90
11736;DHT22;5924;51.398;7.088;2022-10-17T04:49:23;16.50;99.90
11736;DHT22;5924;51.398;7.088;2022-10-17T04:51:49;16.50;99.90
11736;DHT22;5924;51.398;7.088;2022-10-17T04:54:15;16.50;99.90
11736;DHT22;5924;51.398;7.088;2022-10-17T04:56:40;16.50;99.90
11736;DHT22;5924;51.398;7.088;2022-10-17T04:59:06;14.00;99.90
11736;DHT22;5924;51.398;7.088;2022-10-17T05:01:31;16.40;99.90
11736;DHT22;5924;51.398;7.088;2022-10-17T05:03:57;16.40;99.90
11736;DHT22;5924;51.398;7.088;2022-10-17T05:06:24;16.50;99.90
11736;DHT22;5924;51.398;7.088;2022-10-17T05:08:50;16.50;99.90
11736;DHT22;5924;51.398;7.088;2022-10-17T05:11:26;16.50;99.90
11736;DHT22;5924;51.398;7.088;2022-10-17T05:14:01;16.50;99.90
11736;DHT22;5924;51.398;7.088;2022-10-17T05:16:28;16.50;99.90
11736;DHT22;5924;51.398;7.088;2022-10-17T05:18:55;16.50;99.90
11736;DHT22;5924;51.398;7.088;2022-10-17T05:21:24;16.50;99.90
11736;DHT22;5924;51.398;7.088;2022-10-17T05:23:50;16.50;99.90
11736;DHT22;5924;51.398;7.088;2022-10-17T05:26:16;16.50;99.90
11736;DHT22;5924;51.398;7.088;2022-10-17T05:28:41;16.40;99.90
11736;DHT22;5924;51.398;7.088;2022-10-17T05:31:09;16.50;99.90
11736;DHT22;5924;51.398;7.088;2022-10-17T05:33:35;16.60;99.90
11736;DHT22;5924;51.398;7.088;2022-10-17T05:36:01;16.60;99.90
11736;DHT22;5924;51.398;7.088;2022-10-17T05:38:27;16.20;99.90
11736;DHT22;5924;51.398;7.088;2022-10-17T05:40:57;16.60;99.90
11736;DHT22;5924;51.398;7.088;2022-10-17T05:43:23;16.60;99.90
11736;DHT22;5924;51.398;7.088;2022-10-17T05:45:48;16.60;99.90
11736;DHT22;5924;51.398;7.088;2022-10-17T05:48:14;16.60;99.90
11736;DHT22;5924;51.398;7.088;2022-10-17T05:50:39;16.70;99.80
11736;DHT22;5924;51.398;7.088;2022-10-17T05:53:05;16.70;99.60
11736;DHT22;5924;51.398;7.088;2022-10-17T05:55:31;16.70;99.70
11736;DHT22;5924;51.398;7.088;2022-10-17T05:57:59;16.60;99.90
11736;DHT22;5924;51.398;7.088;2022-10-17T06:00:24;16.60;99.60
11736;DHT22;5924;51.398;7.088;2022-10-17T06:02:50;16.70;98.80
11736;DHT22;5924;51.398;7.088;2022-10-17T06:05:16;16.60;99.70
11736;DHT22;5924;51.398;7.088;2022-10-17T06:07:41;16.60;99.90
11736;DHT22;5924;51.398;7.088;2022-10-17T06:10:07;16.60;99.90
11736;DHT22;5924;51.398;7.088;2022-10-17T06:12:33;16.60;99.90
11736;DHT22;5924;51.398;7.088;2022-10-17T06:14:59;16.50;99.90
11736;DHT22;5924;51.398;7.088;2022-10-17T06:17:25;16.50;99.90
11736;DHT22;5924;51.398;7.088;2022-10-17T06:19:50;16.50;99.90
11736;DHT22;5924;51.398;7.088;2022-10-17T06:22:16;16.50;99.90
11736;DHT22;5924;51.398;7.088;2022-10-17T06:24:41;16.60;99.90
11736;DHT22;5924;51.398;7.088;2022-10-17T06:27:07;16.60;99.50
11736;DHT22;5924;51.398;7.088;2022-10-17T06:29:33;16.50;99.90
11736;DHT22;5924;51.398;7.088;2022-10-17T06:31:59;16.50;99.90
11736;DHT22;5924;51.398;7.088;2022-10-17T06:34:24;16.40;99.90
11736;DHT22;5924;51.398;7.088;2022-10-17T06:36:50;16.40;99.90
11736;DHT22;5924;51.398;7.088;2022-10-17T06:39:15;16.40;99.90
11736;DHT22;5924;51.398;7.088;2022-10-17T06:41:41;16.40;99.90
11736;DHT22;5924;51.398;7.088;2022-10-17T06:44:09;16.40;99.90
11736;DHT22;5924;51.398;7.088;2022-10-17T06:46:38;16.40;99.90
11736;DHT22;5924;51.398;7.088;2022-10-17T06:49:05;14.90;99.90
11736;DHT22;5924;51.398;7.088;2022-10-17T06:51:33;16.60;99.90
11736;DHT22;5924;51.398;7.088;2022-10-17T06:53:59;16.70;96.30
11736;DHT22;5924;51.398;7.088;2022-10-17T06:56:25;16.80;94.30
11736;DHT22;5924;51.398;7.088;2022-10-17T06:58:51;17.00;80.30
11736;DHT22;5924;51.398;7.088;2022-10-17T07:01:17;17.10;80.10
11736;DHT22;5924;51.398;7.088;2022-10-17T07:03:43;17.10;76.50
11736;DHT22;5924;51.398;7.088;2022-10-17T07:06:11;17.10;75.20
11736;DHT22;5924;51.398;7.088;2022-10-17T07:08:37;17.10;70.10
11736;DHT22;5924;51.398;7.088;2022-10-17T07:11:14;17.20;64.40
11736;DHT22;5924;51.398;7.088;2022-10-17T07:13:40;16.20;65.50
11736;DHT22;5924;51.398;7.088;2022-10-17T07:16:06;17.30;55.00
11736;DHT22;5924;51.398;7.088;2022-10-17T07:18:32;17.30;53.60
11736;DHT22;5924;51.398;7.088;2022-10-17T07:20:58;17.30;55.90
11736;DHT22;5924;51.398;7.088;2022-10-17T07:23:24;17.30;46.00
11736;DHT22;5924;51.398;7.088;2022-10-17T07:25:50;17.40;46.70
11736;DHT22;5924;51.398;7.088;2022-10-17T07:28:15;17.50;30.20
11736;DHT22;5924;51.398;7.088;2022-10-17T07:30:42;17.60;21.90
11736;DHT22;5924;51.398;7.088;2022-10-17T07:33:07;17.60;25.50
11736;DHT22;5924;51.398;7.088;2022-10-17T07:35:33;17.70;18.60
11736;DHT22;5924;51.398;7.088;2022-10-17T07:37:59;17.70;7.10
11736;DHT22;5924;51.398;7.088;2022-10-17T07:40:24;17.80;2.10
11736;DHT22;5924;51.398;7.088;2022-10-17T07:42:50;17.90;1.00
11736;DHT22;5924;51.398;7.088;2022-10-17T07:45:16;17.90;99.90
11736;DHT22;5924;51.398;7.088;2022-10-17T07:47:41;18.00;99.90
11736;DHT22;5924;51.398;7.088;2022-10-17T07:50:07;18.00;99.90
11736;DHT22;5924;51.398;7.088;2022-10-17T07:52:33;18.10;99.90
11736;DHT22;5924;51.398;7.088;2022-10-17T07:54:59;18.10;99.90
11736;DHT22;5924;51.398;7.088;2022-10-17T07:57:25;18.20;99.90
11736;DHT22;5924;51.398;7.088;2022-10-17T07:59:50;18.20;99.90
11736;DHT22;5924;51.398;7.088;2022-10-17T08:02:26;18.20;99.90
11736;DHT22;5924;51.398;7.088;2022-10-17T08:04:52;18.20;99.90
11736;DHT22;5924;51.398;7.088;2022-10-17T08:07:18;18.20;99.90
11736;DHT22;5924;51.398;7.088;2022-10-17T08:09:45;18.30;99.90
11736;DHT22;5924;51.398;7.088;2022-10-17T08:12:11;18.30;99.90
11736;DHT22;5924;51.398;7.088;2022-10-17T08:14:39;18.40;99.90
11736;DHT22;5924;51.398;7.088;2022-10-17T08:17:05;18.40;99.90
11736;DHT22;5924;51.398;7.088;2022-10-17T08:19:31;18.40;99.90
11736;DHT22;5924;51.398;7.088;2022-10-17T08:21:56;18.50;99.90
11736;DHT22;5924;51.398;7.088;2022-10-17T08:24:23;18.50;99.90
11736;DHT22;5924;51.398;7.088;2022-10-17T08:26:49;18.60;99.90
11736;DHT22;5924;51.398;7.088;2022-10-17T08:29:18;18.70;99.90
11736;DHT22;5924;51.398;7.088;2022-10-17T08:31:43;18.70;99.90
11736;DHT22;5924;51.398;7.088;2022-10-17T08:34:09;18.80;99.90
11736;DHT22;5924;51.398;7.088;2022-10-17T08:36:35;18.90;99.90
11736;DHT22;5924;51.398;7.088;2022-10-17T08:39:00;19.00;99.90
11736;DHT22;5924;51.398;7.088;2022-10-17T08:42:32;19.00;99.90
11736;DHT22;5924;51.398;7.088;2022-10-17T08:47:11;19.50;99.90
11736;DHT22;5924;51.398;7.088;2022-10-17T08:54:57;19.80;99.90
11736;DHT22;5924;51.398;7.088;2022-10-17T08:57:24;19.90;99.90
11736;DHT22;5924;51.398;7.088;2022-10-17T08:59:51;20.00;99.90
11736;DHT22;5924;51.398;7.088;2022-10-17T09:05:35;20.10;99.90
11736;DHT22;5924;51.398;7.088;2022-10-17T09:13:23;20.50;99.90
11736;DHT22;5924;51.398;7.088;2022-10-17T09:21:01;20.40;99.90
11736;DHT22;5924;51.398;7.088;2022-10-17T09:23:45;20.60;99.90
11736;DHT22;5924;51.398;7.088;2022-10-17T09:26:12;20.70;99.90
11736;DHT22;5924;51.398;7.088;2022-10-17T09:28:39;20.70;99.90
11736;DHT22;5924;51.398;7.088;2022-10-17T09:31:28;20.80;99.90
11736;DHT22;5924;51.398;7.088;2022-10-17T09:33:56;20.90;99.90
11736;DHT22;5924;51.398;7.088;2022-10-17T09:36:39;21.10;99.90
11736;DHT22;5924;51.398;7.088;2022-10-17T09:39:14;21.30;99.90
11736;DHT22;5924;51.398;7.088;2022-10-17T09:41:59;21.50;99.90
11736;DHT22;5924;51.398;7.088;2022-10-17T09:44:34;21.70;99.90
11736;DHT22;5924;51.398;7.088;2022-10-17T09:49:43;21.60;99.90
11736;DHT22;5924;51.398;7.088;2022-10-17T09:52:15;21.60;99.90
11736;DHT22;5924;51.398;7.088;2022-10-17T09:54:45;21.60;99.90
11736;DHT22;5924;51.398;7.088;2022-10-17T09:57:12;21.60;99.90
11736;DHT22;5924;51.398;7.088;2022-10-17T09:59:42;21.60;99.90
11736;DHT22;5924;51.398;7.088;2022-10-17T10:04:34;21.40;99.90
11736;DHT22;5924;51.398;7.088;2022-10-17T10:07:03;21.40;99.90
11736;DHT22;5924;51.398;7.088;2022-10-17T10:09:30;21.30;99.90
11736;DHT22;5924;51.398;7.088;2022-10-17T10:11:58;21.10;99.90
11736;DHT22;5924;51.398;7.088;2022-10-17T10:14:35;21.00;99.90
11736;DHT22;5924;51.398;7.088;2022-10-17T10:17:04;20.80;99.90
11736;DHT22;5924;51.398;7.088;2022-10-17T10:19:35;20.80;99.90
11736;DHT22;5924;51.398;7.088;2022-10-17T10:22:12;20.70;99.90
11736;DHT22;5924;51.398;7.088;2022-10-17T10:24:39;20.70;99.90
11736;DHT22;5924;51.398;7.088;2022-10-17T10:27:05;20.60;99.90
11736;DHT22;5924;51.398;7.088;2022-10-17T10:29:41;20.50;99.90
11736;DHT22;5924;51.398;7.088;2022-10-17T10:32:26;20.40;99.90
11736;DHT22;5924;51.398;7.088;2022-10-17T10:34:57;20.30;99.90
11736;DHT22;5924;51.398;7.088;2022-10-17T10:37:28;20.20;99.90
11736;DHT22;5924;51.398;7.088;2022-10-17T10:40:16;20.20;99.90
11736;DHT22;5924;51.398;7.088;2022-10-17T10:42:46;20.30;99.90
11736;DHT22;5924;51.398;7.088;2022-10-17T10:45:22;20.50;99.90
11736;DHT22;5924;51.398;7.088;2022-10-17T10:48:02;20.70;99.90
11736;DHT22;5924;51.398;7.088;2022-10-17T10:50:41;22.60;99.90
11736;DHT22;5924;51.398;7.088;2022-10-17T10:56:15;20.80;99.90
11736;DHT22;5924;51.398;7.088;2022-10-17T10:58:52;20.90;99.90
11736;DHT22;5924;51.398;7.088;2022-10-17T11:04:26;20.90;99.90
11736;DHT22;5924;51.398;7.088;2022-10-17T11:07:08;20.70;99.90
11736;DHT22;5924;51.398;7.088;2022-10-17T11:17:54;20.60;99.90
11736;DHT22;5924;51.398;7.088;2022-10-17T11:23:19;20.70;99.90
11736;DHT22;5924;51.398;7.088;2022-10-17T11:25:50;20.80;99.90
11736;DHT22;5924;51.398;7.088;2022-10-17T11:28:19;20.80;99.90
11736;DHT22;5924;51.398;7.088;2022-10-17T11:31:08;20.80;99.90
11736;DHT22;5924;51.398;7.088;2022-10-17T11:33:49;21.30;99.90
11736;DHT22;5924;51.398;7.088;2022-10-17T11:36:20;21.30;99.90
11736;DHT22;5924;51.398;7.088;2022-10-17T11:39:06;20.80;99.90
11736;DHT22;5924;51.398;7.088;2022-10-17T11:42:28;20.90;99.90
11736;DHT22;5924;51.398;7.088;2022-10-17T11:44:39;20.90;99.90
11736;DHT22;5924;51.398;7.088;2022-10-17T11:47:28;20.90;99.90
11736;DHT22;5924;51.398;7.088;2022-10-17T11:52:47;20.80;99.90
11736;DHT22;5924;51.398;7.088;2022-10-17T11:55:29;20.80;99.90
11736;DHT22;5924;51.398;7.088;2022-10-17T12:04:25;20.90;99.90
11736;DHT22;5924;51.398;7.088;2022-10-17T12:12:43;20.50;99.90
11736;DHT22;5924;51.398;7.088;2022-10-17T12:17:39;20.40;99.90
11736;DHT22;5924;51.398;7.088;2022-10-17T12:20:30;20.30;99.90
11736;DHT22;5924;51.398;7.088;2022-10-17T12:25:58;20.20;99.90
11736;DHT22;5924;51.398;7.088;2022-10-17T12:28:42;20.20;99.90
11736;DHT22;5924;51.398;7.088;2022-10-17T12:31:29;20.30;99.90
11736;DHT22;5924;51.398;7.088;2022-10-17T12:33:56;20.30;99.90
11736;DHT22;5924;51.398;7.088;2022-10-17T12:49:36;20.00;99.90
11736;DHT22;5924;51.398;7.088;2022-10-17T12:58:00;19.80;99.90
11736;DHT22;5924;51.398;7.088;2022-10-17T13:01:14;19.70;99.90
11736;DHT22;5924;51.398;7.088;2022-10-17T13:03:29;19.60;99.90
11736;DHT22;5924;51.398;7.088;2022-10-17T13:06:05;18.80;99.90
11736;DHT22;5924;51.398;7.088;2022-10-17T13:08:34;19.50;99.90
11736;DHT22;5924;51.398;7.088;2022-10-17T13:11:02;19.40;99.90
11736;DHT22;5924;51.398;7.088;2022-10-17T13:13:51;19.50;99.90
11736;DHT22;5924;51.398;7.088;2022-10-17T13:16:29;19.40;99.90
11736;DHT22;5924;51.398;7.088;2022-10-17T13:18:55;19.40;99.90
11736;DHT22;5924;51.398;7.088;2022-10-17T13:21:21;19.30;99.90
11736;DHT22;5924;51.398;7.088;2022-10-17T13:23:47;17.30;99.90
11736;DHT22;5924;51.398;7.088;2022-10-17T13:26:24;19.20;99.90
11736;DHT22;5924;51.398;7.088;2022-10-17T13:29:13;19.10;99.90
11736;DHT22;5924;51.398;7.088;2022-10-17T13:31:41;19.10;99.90
11736;DHT22;5924;51.398;7.088;2022-10-17T13:34:16;19.20;99.90
11736;DHT22;5924;51.398;7.088;2022-10-17T13:36:45;19.20;99.90
11736;DHT22;5924;51.398;7.088;2022-10-17T13:39:14;19.10;99.90
11736;DHT22;5924;51.398;7.088;2022-10-17T13:41:41;19.20;99.90
11736;DHT22;5924;51.398;7.088;2022-10-17T13:44:13;19.10;99.90
11736;DHT22;5924;51.398;7.088;2022-10-17T13:46:39;19.00;99.90
11736;DHT22;5924;51.398;7.088;2022-10-17T13:49:32;19.00;99.90
11736;DHT22;5924;51.398;7.088;2022-10-17T13:51:57;18.90;99.90
11736;DHT22;5924;51.398;7.088;2022-10-17T13:54:40;20.20;99.90
11736;DHT22;5924;51.398;7.088;2022-10-17T14:00:00;18.80;99.90
11736;DHT22;5924;51.398;7.088;2022-10-17T14:02:28;18.90;99.90
11736;DHT22;5924;51.398;7.088;2022-10-17T14:05:11;19.00;99.90
11736;DHT22;5924;51.398;7.088;2022-10-17T14:07:49;19.00;99.90
11736;DHT22;5924;51.398;7.088;2022-10-17T14:10:22;19.10;99.90
11736;DHT22;5924;51.398;7.088;2022-10-17T14:12:49;19.10;99.90
11736;DHT22;5924;51.398;7.088;2022-10-17T14:15:16;19.20;99.90
11736;DHT22;5924;51.398;7.088;2022-10-17T14:17:42;19.20;99.90
11736;DHT22;5924;51.398;7.088;2022-10-17T14:20:18;19.20;99.90
11736;DHT22;5924;51.398;7.088;2022-10-17T14:22:44;19.20;99.90
11736;DHT22;5924;51.398;7.088;2022-10-17T14:25:28;19.20;99.90
11736;DHT22;5924;51.398;7.088;2022-10-17T14:28:14;19.30;99.90
11736;DHT22;5924;51.398;7.088;2022-10-17T14:30:45;19.30;99.90
11736;DHT22;5924;51.398;7.088;2022-10-17T14:33:20;19.20;99.90
11736;DHT22;5924;51.398;7.088;2022-10-17T14:35:51;19.10;99.90
11736;DHT22;5924;51.398;7.088;2022-10-17T14:38:18;19.10;99.90
11736;DHT22;5924;51.398;7.088;2022-10-17T14:40:54;19.00;99.90
11736;DHT22;5924;51.398;7.088;2022-10-17T14:43:23;19.00;99.90
11736;DHT22;5924;51.398;7.088;2022-10-17T14:45:50;18.90;99.90
11736;DHT22;5924;51.398;7.088;2022-10-17T14:48:19;18.90;99.90
11736;DHT22;5924;51.398;7.088;2022-10-17T14:53:30;18.80;99.90
11736;DHT22;5924;51.398;7.088;2022-10-17T14:55:58;18.70;99.90
11736;DHT22;5924;51.398;7.088;2022-10-17T14:58:27;18.70;99.90
11736;DHT22;5924;51.398;7.088;2022-10-17T15:00:53;18.70;99.90
11736;DHT22;5924;51.398;7.088;2022-10-17T15:03:19;18.60;99.90
11736;DHT22;5924;51.398;7.088;2022-10-17T15:05:46;18.70;99.90
11736;DHT22;5924;51.398;7.088;2022-10-17T15:08:13;18.70;99.90
11736;DHT22;5924;51.398;7.088;2022-10-17T15:10:39;18.70;99.90
11736;DHT22;5924;51.398;7.088;2022-10-17T15:13:07;18.70;99.90
11736;DHT22;5924;51.398;7.088;2022-10-17T15:15:33;18.70;99.90
11736;DHT22;5924;51.398;7.088;2022-10-17T15:18:00;18.70;99.90
11736;DHT22;5924;51.398;7.088;2022-10-17T15:20:26;18.70;99.90
11736;DHT22;5924;51.398;7.088;2022-10-17T15:22:54;18.70;99.90
11736;DHT22;5924;51.398;7.088;2022-10-17T15:25:20;18.60;99.90
11736;DHT22;5924;51.398;7.088;2022-10-17T15:27:46;18.50;99.90
11736;DHT22;5924;51.398;7.088;2022-10-17T15:30:27;18.50;99.90
11736;DHT22;5924;51.398;7.088;2022-10-17T15:32:53;17.90;99.90
11736;DHT22;5924;51.398;7.088;2022-10-17T15:35:20;18.30;99.90
11736;DHT22;5924;51.398;7.088;2022-10-17T15:37:46;18.30;99.90
11736;DHT22;5924;51.398;7.088;2022-10-17T15:40:17;18.20;99.90
11736;DHT22;5924;51.398;7.088;2022-10-17T15:42:43;18.20;99.90
11736;DHT22;5924;51.398;7.088;2022-10-17T15:45:10;18.10;99.90
11736;DHT22;5924;51.398;7.088;2022-10-17T15:47:37;18.00;99.90
11736;DHT22;5924;51.398;7.088;2022-10-17T15:50:04;18.00;99.90
11736;DHT22;5924;51.398;7.088;2022-10-17T15:52:30;17.90;99.90
11736;DHT22;5924;51.398;7.088;2022-10-17T15:54:56;17.80;99.90
11736;DHT22;5924;51.398;7.088;2022-10-17T15:57:25;17.80;99.90
11736;DHT22;5924;51.398;7.088;2022-10-17T15:59:52;17.70;99.90
11736;DHT22;5924;51.398;7.088;2022-10-17T16:02:20;17.70;99.90
11736;DHT22;5924;51.398;7.088;2022-10-17T16:04:47;17.70;99.90
11736;DHT22;5924;51.398;7.088;2022-10-17T16:07:13;17.60;99.90
11736;DHT22;5924;51.398;7.088;2022-10-17T16:09:39;17.60;99.90
11736;DHT22;5924;51.398;7.088;2022-10-17T16:12:09;17.60;99.90
11736;DHT22;5924;51.398;7.088;2022-10-17T16:14:36;17.60;99.90
11736;DHT22;5924;51.398;7.088;2022-10-17T16:17:01;17.50;99.90
11736;DHT22;5924;51.398;7.088;2022-10-17T16:19:27;17.50;99.90
11736;DHT22;5924;51.398;7.088;2022-10-17T16:21:58;17.50;99.90
11736;DHT22;5924;51.398;7.088;2022-10-17T16:24:25;17.40;99.90
11736;DHT22;5924;51.398;7.088;2022-10-17T16:26:51;17.40;99.90
11736;DHT22;5924;51.398;7.088;2022-10-17T16:29:17;17.40;99.90
11736;DHT22;5924;51.398;7.088;2022-10-17T16:31:44;17.30;99.90
11736;DHT22;5924;51.398;7.088;2022-10-17T16:34:12;17.30;99.90
11736;DHT22;5924;51.398;7.088;2022-10-17T16:36:41;17.20;99.90
11736;DHT22;5924;51.398;7.088;2022-10-17T16:39:07;17.20;99.90
11736;DHT22;5924;51.398;7.088;2022-10-17T16:41:35;17.20;99.90
11736;DHT22;5924;51.398;7.088;2022-10-17T16:44:04;17.10;99.90
11736;DHT22;5924;51.398;7.088;2022-10-17T16:46:31;17.10;99.90
11736;DHT22;5924;51.398;7.088;2022-10-17T16:48:58;17.10;99.90
11736;DHT22;5924;51.398;7.088;2022-10-17T16:51:24;17.10;99.90
11736;DHT22;5924;51.398;7.088;2022-10-17T16:53:51;17.70;99.90
11736;DHT22;5924;51.398;7.088;2022-10-17T16:56:23;17.10;99.90
11736;DHT22;5924;51.398;7.088;2022-10-17T16:58:49;17.00;99.90
11736;DHT22;5924;51.398;7.088;2022-10-17T17:01:22;17.00;99.90
11736;DHT22;5924;51.398;7.088;2022-10-17T17:03:48;17.00;99.90
11736;DHT22;5924;51.398;7.088;2022-10-17T17:06:19;16.90;99.90
11736;DHT22;5924;51.398;7.088;2022-10-17T17:08:46;16.90;99.90
11736;DHT22;5924;51.398;7.088;2022-10-17T17:11:15;16.90;99.90
11736;DHT22;5924;51.398;7.088;2022-10-17T17:13:41;16.80;99.90
11736;DHT22;5924;51.398;7.088;2022-10-17T17:16:12;16.80;99.90
11736;DHT22;5924;51.398;7.088;2022-10-17T17:18:39;16.80;99.90
11736;DHT22;5924;51.398;7.088;2022-10-17T17:21:06;16.70;99.90
11736;DHT22;5924;51.398;7.088;2022-10-17T17:23:35;16.70;99.90
11736;DHT22;5924;51.398;7.088;2022-10-17T17:26:04;16.70;99.90
11736;DHT22;5924;51.398;7.088;2022-10-17T17:28:31;16.70;99.90
11736;DHT22;5924;51.398;7.088;2022-10-17T17:30:57;16.60;99.90
11736;DHT22;5924;51.398;7.088;2022-10-17T17:33:24;16.60;99.90
11736;DHT22;5924;51.398;7.088;2022-10-17T17:35:54;16.60;99.90
11736;DHT22;5924;51.398;7.088;2022-10-17T17:38:20;16.60;99.90
11736;DHT22;5924;51.398;7.088;2022-10-17T17:40:46;16.60;99.90
11736;DHT22;5924;51.398;7.088;2022-10-17T17:43:12;16.60;99.90
11736;DHT22;5924;51.398;7.088;2022-10-17T17:45:38;16.60;99.90
11736;DHT22;5924;51.398;7.088;2022-10-17T17:48:04;16.60;99.90
11736;DHT22;5924;51.398;7.088;2022-10-17T17:50:29;16.50;99.90
11736;DHT22;5924;51.398;7.088;2022-10-17T17:52:55;16.50;99.90
11736;DHT22;5924;51.398;7.088;2022-10-17T17:55:20;16.50;99.90
11736;DHT22;5924;51.398;7.088;2022-10-17T17:57:46;16.40;99.90
11736;DHT22;5924;51.398;7.088;2022-10-17T18:00:12;16.40;99.90
11736;DHT22;5924;51.398;7.088;2022-10-17T18:02:38;16.40;99.90
11736;DHT22;5924;51.398;7.088;2022-10-17T18:05:04;16.40;99.90